sensor_id;sensor_type;location;lat;lon;timestamp;pressure;altitude;pressure_sealevel;temperature;humidity
20043;BME280;10182;52.896;6.496;2022-07-19T00:02:53;101766.72;;;19.68;69.14
20043;BME280;10182;52.896;6.496;2022-07-19T00:07:56;101761.91;;;19.73;68.79
20043;BME280;10182;52.896;6.496;2022-07-19T00:12:58;101758.56;;;19.70;68.00
20043;BME280;10182;52.896;6.496;2022-07-19T00:17:59;101757.41;;;19.74;68.05
20043;BME280;10182;52.896;6.496;2022-07-19T00:23:02;101752.00;;;19.61;69.72
20043;BME280;10182;52.896;6.496;2022-07-19T00:28:04;101748.56;;;19.59;69.43
20043;BME280;10182;52.896;6.496;2022-07-19T00:33:06;101757.16;;;19.64;67.77
20043;BME280;10182;52.896;6.496;2022-07-19T00:38:11;101755.88;;;19.70;67.72
20043;BME280;10182;52.896;6.496;2022-07-19T00:43:13;101767.91;;;19.51;72.09
20043;BME280;10182;52.896;6.496;2022-07-19T00:48:15;101753.28;;;19.68;67.09
20043;BME280;10182;52.896;6.496;2022-07-19T00:53:19;101762.44;;;19.78;65.97
20043;BME280;10182;52.896;6.496;2022-07-19T00:58:21;101750.06;;;19.76;65.61
20043;BME280;10182;52.896;6.496;2022-07-19T01:03:23;101753.88;;;19.86;64.95
20043;BME280;10182;52.896;6.496;2022-07-19T01:08:27;101756.47;;;19.88;64.46
20043;BME280;10182;52.896;6.496;2022-07-19T01:13:28;101749.25;;;19.88;63.72
20043;BME280;10182;52.896;6.496;2022-07-19T01:18:30;101755.81;;;19.84;63.75
20043;BME280;10182;52.896;6.496;2022-07-19T01:23:33;101748.28;;;19.89;62.98
20043;BME280;10182;52.896;6.496;2022-07-19T01:28:35;101748.78;;;19.69;64.00
20043;BME280;10182;52.896;6.496;2022-07-19T01:33:40;101744.69;;;19.50;68.27
20043;BME280;10182;52.896;6.496;2022-07-19T01:38:43;101747.06;;;19.55;64.45
20043;BME280;10182;52.896;6.496;2022-07-19T01:43:44;101760.78;;;19.50;64.83
20043;BME280;10182;52.896;6.496;2022-07-19T01:48:46;101752.41;;;19.42;65.89
20043;BME280;10182;52.896;6.496;2022-07-19T01:53:49;101757.78;;;19.42;64.99
20043;BME280;10182;52.896;6.496;2022-07-19T01:58:51;101757.13;;;19.38;64.10
20043;BME280;10182;52.896;6.496;2022-07-19T02:03:52;101748.63;;;19.32;64.37
20043;BME280;10182;52.896;6.496;2022-07-19T02:08:55;101742.59;;;19.15;66.49
20043;BME280;10182;52.896;6.496;2022-07-19T02:13:58;101745.00;;;19.05;65.71
20043;BME280;10182;52.896;6.496;2022-07-19T02:18:59;101739.34;;;19.10;65.01
20043;BME280;10182;52.896;6.496;2022-07-19T02:24:04;101741.56;;;19.03;65.34
20043;BME280;10182;52.896;6.496;2022-07-19T02:29:06;101748.03;;;18.86;65.96
20043;BME280;10182;52.896;6.496;2022-07-19T02:34:08;101744.97;;;18.92;65.87
20043;BME280;10182;52.896;6.496;2022-07-19T02:39:11;101741.44;;;18.77;65.74
20043;BME280;10182;52.896;6.496;2022-07-19T02:44:12;101743.72;;;18.56;70.99
20043;BME280;10182;52.896;6.496;2022-07-19T02:49:14;101742.44;;;18.06;75.13
20043;BME280;10182;52.896;6.496;2022-07-19T02:54:17;101746.22;;;17.87;76.53
20043;BME280;10182;52.896;6.496;2022-07-19T02:59:19;101736.50;;;18.01;72.39
20043;BME280;10182;52.896;6.496;2022-07-19T03:04:20;101735.91;;;18.10;70.02
20043;BME280;10182;52.896;6.496;2022-07-19T03:09:25;101731.59;;;18.07;69.92
20043;BME280;10182;52.896;6.496;2022-07-19T03:14:26;101733.47;;;18.34;67.94
20043;BME280;10182;52.896;6.496;2022-07-19T03:19:29;101735.88;;;18.39;67.69
20043;BME280;10182;52.896;6.496;2022-07-19T03:24:32;101736.47;;;18.44;66.60
20043;BME280;10182;52.896;6.496;2022-07-19T03:29:33;101734.50;;;18.60;65.87
20043;BME280;10182;52.896;6.496;2022-07-19T03:34:35;101731.03;;;18.58;66.10
20043;BME280;10182;52.896;6.496;2022-07-19T03:39:38;101730.28;;;18.56;65.90
20043;BME280;10182;52.896;6.496;2022-07-19T03:44:40;101723.19;;;18.55;65.67
20043;BME280;10182;52.896;6.496;2022-07-19T03:49:41;101720.53;;;18.55;65.63
20043;BME280;10182;52.896;6.496;2022-07-19T03:54:44;101718.50;;;18.59;65.74
20043;BME280;10182;52.896;6.496;2022-07-19T03:59:46;101720.72;;;18.52;65.70
20043;BME280;10182;52.896;6.496;2022-07-19T04:04:48;101720.53;;;18.55;65.32
20043;BME280;10182;52.896;6.496;2022-07-19T04:09:51;101723.19;;;18.55;65.20
20043;BME280;10182;52.896;6.496;2022-07-19T04:14:52;101720.53;;;18.55;65.35
20043;BME280;10182;52.896;6.496;2022-07-19T04:19:54;101721.38;;;18.56;65.02
20043;BME280;10182;52.896;6.496;2022-07-19T04:24:57;101728.38;;;18.58;64.96
20043;BME280;10182;52.896;6.496;2022-07-19T04:29:59;101722.03;;;18.59;66.27
20043;BME280;10182;52.896;6.496;2022-07-19T04:35:01;101724.47;;;18.77;65.29
20043;BME280;10182;52.896;6.496;2022-07-19T04:40:06;101734.44;;;18.89;65.40
20043;BME280;10182;52.896;6.496;2022-07-19T04:45:09;101736.31;;;18.87;68.80
20043;BME280;10182;52.896;6.496;2022-07-19T04:50:10;101733.94;;;18.83;72.73
20043;BME280;10182;52.896;6.496;2022-07-19T04:55:13;101733.50;;;18.76;71.55
20043;BME280;10182;52.896;6.496;2022-07-19T05:00:16;101737.59;;;18.96;70.16
20043;BME280;10182;52.896;6.496;2022-07-19T05:05:18;101736.50;;;19.26;68.03
20043;BME280;10182;52.896;6.496;2022-07-19T05:10:21;101722.63;;;19.45;65.31
20043;BME280;10182;52.896;6.496;2022-07-19T05:15:22;101717.38;;;19.69;63.71
20043;BME280;10182;52.896;6.496;2022-07-19T05:20:24;101723.66;;;19.83;62.78
20043;BME280;10182;52.896;6.496;2022-07-19T05:25:27;101721.94;;;19.94;63.04
20043;BME280;10182;52.896;6.496;2022-07-19T05:30:29;101713.72;;;20.09;62.20
20043;BME280;10182;52.896;6.496;2022-07-19T05:35:30;101724.47;;;20.22;61.95
20043;BME280;10182;52.896;6.496;2022-07-19T05:40:33;101723.47;;;20.36;60.87
20043;BME280;10182;52.896;6.496;2022-07-19T05:45:35;101723.53;;;20.47;61.49
20043;BME280;10182;52.896;6.496;2022-07-19T05:50:37;101728.25;;;20.56;61.86
20043;BME280;10182;52.896;6.496;2022-07-19T05:55:40;101742.00;;;20.65;60.43
20043;BME280;10182;52.896;6.496;2022-07-19T06:00:42;101738.88;;;20.71;60.93
20043;BME280;10182;52.896;6.496;2022-07-19T06:06:04;101736.16;;;20.84;61.65
20043;BME280;10182;52.896;6.496;2022-07-19T06:11:07;101735.22;;;20.96;61.66
20043;BME280;10182;52.896;6.496;2022-07-19T06:16:09;101728.16;;;21.06;60.94
20043;BME280;10182;52.896;6.496;2022-07-19T06:21:12;101725.66;;;21.16;61.16
20043;BME280;10182;52.896;6.496;2022-07-19T06:26:16;101729.34;;;21.26;61.48
20043;BME280;10182;52.896;6.496;2022-07-19T06:31:18;101727.06;;;21.44;61.56
20043;BME280;10182;52.896;6.496;2022-07-19T06:36:19;101722.22;;;21.61;61.86
20043;BME280;10182;52.896;6.496;2022-07-19T06:41:23;101723.72;;;21.76;62.03
20043;BME280;10182;52.896;6.496;2022-07-19T06:46:24;101722.25;;;21.95;60.83
20043;BME280;10182;52.896;6.496;2022-07-19T06:51:26;101733.91;;;22.18;59.97
20043;BME280;10182;52.896;6.496;2022-07-19T06:56:29;101723.38;;;22.38;59.97
20043;BME280;10182;52.896;6.496;2022-07-19T07:01:31;101720.34;;;22.63;60.62
20043;BME280;10182;52.896;6.496;2022-07-19T07:06:33;101715.72;;;22.87;60.41
20043;BME280;10182;52.896;6.496;2022-07-19T07:11:36;101720.31;;;23.07;60.37
20043;BME280;10182;52.896;6.496;2022-07-19T07:16:38;101716.56;;;23.31;59.64
20043;BME280;10182;52.896;6.496;2022-07-19T07:21:39;101707.91;;;23.58;58.61
20043;BME280;10182;52.896;6.496;2022-07-19T07:26:42;101710.88;;;23.86;58.50
20043;BME280;10182;52.896;6.496;2022-07-19T07:31:44;101706.78;;;24.13;57.25
20043;BME280;10182;52.896;6.496;2022-07-19T07:36:46;101699.44;;;24.44;57.16
20043;BME280;10182;52.896;6.496;2022-07-19T07:41:49;101702.50;;;24.71;55.86
20043;BME280;10182;52.896;6.496;2022-07-19T07:46:50;101698.66;;;24.93;55.66
20043;BME280;10182;52.896;6.496;2022-07-19T07:51:52;101699.47;;;25.23;56.01
20043;BME280;10182;52.896;6.496;2022-07-19T07:56:55;101688.31;;;25.55;51.98
20043;BME280;10182;52.896;6.496;2022-07-19T08:01:57;101685.22;;;25.88;51.91
20043;BME280;10182;52.896;6.496;2022-07-19T08:06:59;101676.63;;;26.20;49.82
20043;BME280;10182;52.896;6.496;2022-07-19T08:12:02;101678.16;;;26.50;48.96
20043;BME280;10182;52.896;6.496;2022-07-19T08:17:04;101669.97;;;26.78;48.60
20043;BME280;10182;52.896;6.496;2022-07-19T08:22:05;101664.91;;;27.01;48.72
20043;BME280;10182;52.896;6.496;2022-07-19T08:27:08;101665.25;;;27.25;47.51
20043;BME280;10182;52.896;6.496;2022-07-19T08:32:10;101660.81;;;27.50;47.57
20043;BME280;10182;52.896;6.496;2022-07-19T08:37:12;101660.28;;;27.73;46.25
20043;BME280;10182;52.896;6.496;2022-07-19T08:42:19;101665.53;;;28.00;45.57
20043;BME280;10182;52.896;6.496;2022-07-19T08:47:21;101665.78;;;28.24;44.95
20043;BME280;10182;52.896;6.496;2022-07-19T08:52:23;101664.28;;;28.46;43.86
20043;BME280;10182;52.896;6.496;2022-07-19T08:57:26;101665.38;;;28.69;43.44
20043;BME280;10182;52.896;6.496;2022-07-19T09:02:54;101663.16;;;28.98;42.30
20043;BME280;10182;52.896;6.496;2022-07-19T09:08:08;101662.63;;;29.19;41.10
20043;BME280;10182;52.896;6.496;2022-07-19T09:13:13;101667.91;;;29.45;40.67
20043;BME280;10182;52.896;6.496;2022-07-19T09:18:18;101658.81;;;29.61;38.90
20043;BME280;10182;52.896;6.496;2022-07-19T09:23:21;101662.16;;;29.80;37.76
20043;BME280;10182;52.896;6.496;2022-07-19T09:28:25;101654.97;;;29.95;37.89
20043;BME280;10182;52.896;6.496;2022-07-19T09:33:28;101651.47;;;30.10;37.28
20043;BME280;10182;52.896;6.496;2022-07-19T09:38:32;101655.81;;;30.27;37.81
20043;BME280;10182;52.896;6.496;2022-07-19T09:43:51;101649.38;;;30.51;37.93
20043;BME280;10182;52.896;6.496;2022-07-19T09:48:53;101648.09;;;30.62;35.36
20043;BME280;10182;52.896;6.496;2022-07-19T09:53:55;101646.56;;;30.83;35.33
20043;BME280;10182;52.896;6.496;2022-07-19T09:59:00;101648.66;;;30.96;35.11
20043;BME280;10182;52.896;6.496;2022-07-19T10:04:05;101637.13;;;31.09;36.31
20043;BME280;10182;52.896;6.496;2022-07-19T10:09:09;101637.16;;;31.24;33.81
20043;BME280;10182;52.896;6.496;2022-07-19T10:14:13;101630.19;;;31.36;33.58
20043;BME280;10182;52.896;6.496;2022-07-19T10:19:18;101635.66;;;31.51;33.95
20043;BME280;10182;52.896;6.496;2022-07-19T10:24:45;101624.22;;;31.77;34.03
20043;BME280;10182;52.896;6.496;2022-07-19T10:29:48;101614.38;;;31.98;33.46
20043;BME280;10182;52.896;6.496;2022-07-19T10:34:50;101611.13;;;32.09;33.22
20043;BME280;10182;52.896;6.496;2022-07-19T10:39:57;101613.75;;;32.17;32.82
20043;BME280;10182;52.896;6.496;2022-07-19T10:45:11;101611.63;;;32.34;32.03
20043;BME280;10182;52.896;6.496;2022-07-19T10:50:14;101613.00;;;32.45;32.55
20043;BME280;10182;52.896;6.496;2022-07-19T10:55:24;101607.81;;;32.57;32.49
20043;BME280;10182;52.896;6.496;2022-07-19T11:00:30;101598.63;;;32.65;32.52
20043;BME280;10182;52.896;6.496;2022-07-19T11:05:33;101595.47;;;32.68;33.25
20043;BME280;10182;52.896;6.496;2022-07-19T11:10:35;101592.69;;;32.83;32.34
20043;BME280;10182;52.896;6.496;2022-07-19T11:15:38;101591.28;;;32.94;29.91
20043;BME280;10182;52.896;6.496;2022-07-19T11:20:41;101576.47;;;33.16;32.35
20043;BME280;10182;52.896;6.496;2022-07-19T11:25:43;101572.06;;;33.22;31.97
20043;BME280;10182;52.896;6.496;2022-07-19T11:30:46;101566.84;;;33.34;31.79
20043;BME280;10182;52.896;6.496;2022-07-19T11:35:55;101555.47;;;33.30;30.75
20043;BME280;10182;52.896;6.496;2022-07-19T11:40:57;101563.13;;;33.48;30.57
20043;BME280;10182;52.896;6.496;2022-07-19T11:46:00;101557.72;;;33.62;30.93
20043;BME280;10182;52.896;6.496;2022-07-19T11:51:07;101551.47;;;33.81;29.58
20043;BME280;10182;52.896;6.496;2022-07-19T11:56:17;101554.25;;;33.95;28.96
20043;BME280;10182;52.896;6.496;2022-07-19T12:01:24;101547.31;;;34.12;27.86
20043;BME280;10182;52.896;6.496;2022-07-19T12:06:37;101548.38;;;34.18;28.95
20043;BME280;10182;52.896;6.496;2022-07-19T12:11:41;101544.59;;;34.32;28.53
20043;BME280;10182;52.896;6.496;2022-07-19T12:16:45;101529.53;;;34.28;28.04
20043;BME280;10182;52.896;6.496;2022-07-19T12:21:47;101530.63;;;34.40;26.43
20043;BME280;10182;52.896;6.496;2022-07-19T12:27:01;101524.09;;;34.62;26.96
20043;BME280;10182;52.896;6.496;2022-07-19T12:32:06;101526.16;;;34.80;26.42
20043;BME280;10182;52.896;6.496;2022-07-19T12:37:19;101521.13;;;34.90;26.24
20043;BME280;10182;52.896;6.496;2022-07-19T12:42:20;101513.03;;;35.02;26.88
20043;BME280;10182;52.896;6.496;2022-07-19T12:47:23;101509.56;;;35.20;25.60
20043;BME280;10182;52.896;6.496;2022-07-19T12:52:25;101508.91;;;35.31;26.09
20043;BME280;10182;52.896;6.496;2022-07-19T12:57:27;101503.41;;;35.38;24.80
20043;BME280;10182;52.896;6.496;2022-07-19T13:02:31;101500.22;;;35.34;24.99
20043;BME280;10182;52.896;6.496;2022-07-19T13:07:32;101485.28;;;35.55;25.92
20043;BME280;10182;52.896;6.496;2022-07-19T13:12:34;101486.94;;;35.63;25.45
20043;BME280;10182;52.896;6.496;2022-07-19T13:17:37;101490.34;;;35.65;24.76
20043;BME280;10182;52.896;6.496;2022-07-19T13:22:40;101484.78;;;35.72;23.88
20043;BME280;10182;52.896;6.496;2022-07-19T13:27:42;101468.91;;;35.67;24.18
20043;BME280;10182;52.896;6.496;2022-07-19T13:32:45;101457.81;;;35.81;23.99
20043;BME280;10182;52.896;6.496;2022-07-19T13:37:48;101451.22;;;35.88;23.35
20043;BME280;10182;52.896;6.496;2022-07-19T13:42:50;101453.03;;;36.01;24.66
20043;BME280;10182;52.896;6.496;2022-07-19T13:47:53;101442.84;;;36.02;24.01
20043;BME280;10182;52.896;6.496;2022-07-19T13:52:56;101436.47;;;36.01;22.67
20043;BME280;10182;52.896;6.496;2022-07-19T13:57:58;101433.84;;;36.13;22.89
20043;BME280;10182;52.896;6.496;2022-07-19T14:03:01;101428.47;;;36.18;22.70
20043;BME280;10182;52.896;6.496;2022-07-19T14:08:03;101425.84;;;36.30;23.60
20043;BME280;10182;52.896;6.496;2022-07-19T14:13:05;101424.75;;;36.38;22.51
20043;BME280;10182;52.896;6.496;2022-07-19T14:18:08;101411.13;;;36.43;22.89
20043;BME280;10182;52.896;6.496;2022-07-19T14:23:11;101403.75;;;36.37;22.96
20043;BME280;10182;52.896;6.496;2022-07-19T14:28:13;101409.41;;;36.42;22.79
20043;BME280;10182;52.896;6.496;2022-07-19T14:33:17;101402.66;;;36.56;22.85
20043;BME280;10182;52.896;6.496;2022-07-19T14:38:18;101402.38;;;36.46;22.41
20043;BME280;10182;52.896;6.496;2022-07-19T14:43:20;101394.94;;;36.47;22.12
20043;BME280;10182;52.896;6.496;2022-07-19T14:48:23;101384.06;;;36.52;22.11
20043;BME280;10182;52.896;6.496;2022-07-19T14:53:25;101379.38;;;36.52;22.17
20043;BME280;10182;52.896;6.496;2022-07-19T14:58:26;101376.09;;;36.44;21.62
20043;BME280;10182;52.896;6.496;2022-07-19T15:03:29;101377.47;;;36.34;21.67
20043;BME280;10182;52.896;6.496;2022-07-19T15:08:31;101360.47;;;36.37;21.85
20043;BME280;10182;52.896;6.496;2022-07-19T15:13:33;101350.97;;;36.33;21.87
20043;BME280;10182;52.896;6.496;2022-07-19T15:18:36;101353.31;;;36.30;21.72
20043;BME280;10182;52.896;6.496;2022-07-19T15:23:38;101362.03;;;36.26;21.45
20043;BME280;10182;52.896;6.496;2022-07-19T15:28:41;101341.97;;;36.19;21.03
20043;BME280;10182;52.896;6.496;2022-07-19T15:33:44;101346.41;;;36.20;21.37
20043;BME280;10182;52.896;6.496;2022-07-19T15:38:46;101332.25;;;36.17;21.74
20043;BME280;10182;52.896;6.496;2022-07-19T15:43:49;101326.78;;;36.10;22.14
20043;BME280;10182;52.896;6.496;2022-07-19T15:48:52;101319.00;;;36.07;21.77
20043;BME280;10182;52.896;6.496;2022-07-19T15:53:57;101322.28;;;35.97;21.16
20043;BME280;10182;52.896;6.496;2022-07-19T15:58:59;101311.38;;;35.84;20.64
20043;BME280;10182;52.896;6.496;2022-07-19T16:04:02;101303.16;;;35.77;21.96
20043;BME280;10182;52.896;6.496;2022-07-19T16:09:03;101307.66;;;35.71;21.53
20043;BME280;10182;52.896;6.496;2022-07-19T16:14:05;101306.41;;;35.67;21.84
20043;BME280;10182;52.896;6.496;2022-07-19T16:19:08;101292.88;;;35.66;22.29
20043;BME280;10182;52.896;6.496;2022-07-19T16:24:10;101286.53;;;35.65;21.38
20043;BME280;10182;52.896;6.496;2022-07-19T16:29:12;101272.41;;;35.80;22.15
20043;BME280;10182;52.896;6.496;2022-07-19T16:34:15;101269.63;;;36.61;20.86
20043;BME280;10182;52.896;6.496;2022-07-19T16:39:16;101267.47;;;38.31;20.23
20043;BME280;10182;52.896;6.496;2022-07-19T16:44:18;101269.97;;;39.87;18.39
20043;BME280;10182;52.896;6.496;2022-07-19T16:49:21;101262.91;;;40.40;17.59
20043;BME280;10182;52.896;6.496;2022-07-19T16:54:23;101256.63;;;38.99;19.26
20043;BME280;10182;52.896;6.496;2022-07-19T16:59:25;101255.63;;;37.05;21.17
20043;BME280;10182;52.896;6.496;2022-07-19T17:04:28;101251.84;;;36.01;23.06
20043;BME280;10182;52.896;6.496;2022-07-19T17:09:31;101257.94;;;35.41;23.90
20043;BME280;10182;52.896;6.496;2022-07-19T17:14:33;101251.03;;;35.00;24.48
20043;BME280;10182;52.896;6.496;2022-07-19T17:19:36;101244.56;;;34.81;25.22
20043;BME280;10182;52.896;6.496;2022-07-19T17:24:37;101243.44;;;34.50;25.83
20043;BME280;10182;52.896;6.496;2022-07-19T17:29:39;101235.44;;;34.41;26.02
20043;BME280;10182;52.896;6.496;2022-07-19T17:34:42;101235.69;;;34.27;26.48
20043;BME280;10182;52.896;6.496;2022-07-19T17:39:44;101228.16;;;34.08;27.11
20043;BME280;10182;52.896;6.496;2022-07-19T17:44:46;101219.34;;;33.93;27.86
20043;BME280;10182;52.896;6.496;2022-07-19T17:49:49;101225.47;;;33.75;28.61
20043;BME280;10182;52.896;6.496;2022-07-19T17:54:50;101218.09;;;33.55;29.68
20043;BME280;10182;52.896;6.496;2022-07-19T17:59:52;101215.16;;;33.30;30.91
20043;BME280;10182;52.896;6.496;2022-07-19T18:04:55;101218.53;;;33.12;31.96
20043;BME280;10182;52.896;6.496;2022-07-19T18:09:57;101210.88;;;32.87;34.94
20043;BME280;10182;52.896;6.496;2022-07-19T18:14:58;101207.19;;;32.60;36.78
20043;BME280;10182;52.896;6.496;2022-07-19T18:20:02;101216.63;;;32.37;38.10
20043;BME280;10182;52.896;6.496;2022-07-19T18:25:04;101207.84;;;32.14;41.02
20043;BME280;10182;52.896;6.496;2022-07-19T18:30:08;101207.66;;;31.80;44.84
20043;BME280;10182;52.896;6.496;2022-07-19T18:35:11;101204.97;;;31.59;42.11
20043;BME280;10182;52.896;6.496;2022-07-19T18:40:13;101209.66;;;31.36;43.38
20043;BME280;10182;52.896;6.496;2022-07-19T18:45:16;101208.03;;;31.20;42.22
20043;BME280;10182;52.896;6.496;2022-07-19T18:50:19;101194.91;;;31.09;43.16
20043;BME280;10182;52.896;6.496;2022-07-19T18:55:21;101193.56;;;30.83;42.62
20043;BME280;10182;52.896;6.496;2022-07-19T19:00:23;101196.88;;;30.57;44.18
20043;BME280;10182;52.896;6.496;2022-07-19T19:05:26;101203.56;;;30.39;42.52
20043;BME280;10182;52.896;6.496;2022-07-19T19:10:27;101198.22;;;30.16;43.87
20043;BME280;10182;52.896;6.496;2022-07-19T19:15:30;101202.09;;;29.92;45.95
20043;BME280;10182;52.896;6.496;2022-07-19T19:20:33;101199.47;;;29.69;45.75
20043;BME280;10182;52.896;6.496;2022-07-19T19:25:35;101192.81;;;29.48;46.00
20043;BME280;10182;52.896;6.496;2022-07-19T19:30:37;101197.97;;;29.28;45.84
20043;BME280;10182;52.896;6.496;2022-07-19T19:35:41;101196.75;;;29.08;47.11
20043;BME280;10182;52.896;6.496;2022-07-19T19:40:43;101199.00;;;29.04;43.57
20043;BME280;10182;52.896;6.496;2022-07-19T19:45:46;101198.28;;;28.87;45.90
20043;BME280;10182;52.896;6.496;2022-07-19T19:50:49;101206.25;;;28.65;47.40
20043;BME280;10182;52.896;6.496;2022-07-19T19:55:50;101205.78;;;28.53;43.39
20043;BME280;10182;52.896;6.496;2022-07-19T20:00:53;101208.34;;;28.47;47.35
20043;BME280;10182;52.896;6.496;2022-07-19T20:05:56;101196.47;;;28.40;44.83
20043;BME280;10182;52.896;6.496;2022-07-19T20:10:58;101196.81;;;28.45;41.69
20043;BME280;10182;52.896;6.496;2022-07-19T20:16:00;101200.91;;;28.41;43.41
20043;BME280;10182;52.896;6.496;2022-07-19T20:21:03;101200.75;;;28.02;49.46
20043;BME280;10182;52.896;6.496;2022-07-19T20:26:05;101200.25;;;27.82;47.70
20043;BME280;10182;52.896;6.496;2022-07-19T20:31:07;101200.66;;;27.63;48.91
20043;BME280;10182;52.896;6.496;2022-07-19T20:36:10;101203.19;;;27.56;45.94
20043;BME280;10182;52.896;6.496;2022-07-19T20:41:12;101204.06;;;27.48;47.14
20043;BME280;10182;52.896;6.496;2022-07-19T20:46:13;101202.03;;;27.50;43.30
20043;BME280;10182;52.896;6.496;2022-07-19T20:51:17;101197.59;;;27.58;42.37
20043;BME280;10182;52.896;6.496;2022-07-19T20:56:18;101196.88;;;27.64;40.94
20043;BME280;10182;52.896;6.496;2022-07-19T21:01:20;101202.00;;;27.67;40.37
20043;BME280;10182;52.896;6.496;2022-07-19T21:06:23;101202.84;;;27.59;40.07
20043;BME280;10182;52.896;6.496;2022-07-19T21:11:25;101207.47;;;27.59;39.71
20043;BME280;10182;52.896;6.496;2022-07-19T21:16:27;101205.59;;;27.43;39.61
20043;BME280;10182;52.896;6.496;2022-07-19T21:21:30;101200.50;;;27.40;38.55
20043;BME280;10182;52.896;6.496;2022-07-19T21:26:32;101194.56;;;27.36;38.56
20043;BME280;10182;52.896;6.496;2022-07-19T21:31:33;101196.06;;;27.30;37.89
20043;BME280;10182;52.896;6.496;2022-07-19T21:36:37;101193.00;;;27.25;37.41
20043;BME280;10182;52.896;6.496;2022-07-19T21:41:39;101193.34;;;27.22;36.84
20043;BME280;10182;52.896;6.496;2022-07-19T21:46:41;101190.63;;;27.22;36.26
20043;BME280;10182;52.896;6.496;2022-07-19T21:51:44;101191.81;;;27.11;36.78
20043;BME280;10182;52.896;6.496;2022-07-19T21:56:46;101181.78;;;27.03;36.74
20043;BME280;10182;52.896;6.496;2022-07-19T22:01:48;101186.72;;;26.92;36.17
20043;BME280;10182;52.896;6.496;2022-07-19T22:06:51;101187.03;;;26.89;36.07
20043;BME280;10182;52.896;6.496;2022-07-19T22:11:53;101178.88;;;26.80;36.08
20043;BME280;10182;52.896;6.496;2022-07-19T22:16:54;101189.75;;;26.80;35.61
20043;BME280;10182;52.896;6.496;2022-07-19T22:21:57;101196.03;;;26.73;35.87
20043;BME280;10182;52.896;6.496;2022-07-19T22:26:59;101201.25;;;26.66;36.28
20043;BME280;10182;52.896;6.496;2022-07-19T22:32:01;101196.63;;;26.58;36.05
20043;BME280;10182;52.896;6.496;2022-07-19T22:37:05;101200.66;;;26.46;36.16
20043;BME280;10182;52.896;6.496;2022-07-19T22:42:07;101200.97;;;26.34;36.28
20043;BME280;10182;52.896;6.496;2022-07-19T22:47:08;101207.19;;;26.18;36.19
20043;BME280;10182;52.896;6.496;2022-07-19T22:52:11;101206.16;;;26.11;36.95
20043;BME280;10182;52.896;6.496;2022-07-19T22:57:13;101203.41;;;26.03;36.68
20043;BME280;10182;52.896;6.496;2022-07-19T23:02:15;101200.78;;;25.93;36.88
20043;BME280;10182;52.896;6.496;2022-07-19T23:07:18;101198.19;;;25.83;36.96
20043;BME280;10182;52.896;6.496;2022-07-19T23:12:19;101193.00;;;25.72;37.58
20043;BME280;10182;52.896;6.496;2022-07-19T23:17:21;101199.78;;;25.68;37.48
20043;BME280;10182;52.896;6.496;2022-07-19T23:22:24;101202.09;;;25.63;37.11
20043;BME280;10182;52.896;6.496;2022-07-19T23:27:26;101190.19;;;25.56;37.27
20043;BME280;10182;52.896;6.496;2022-07-19T23:32:27;101184.03;;;25.45;37.73
20043;BME280;10182;52.896;6.496;2022-07-19T23:37:30;101182.94;;;25.38;37.38
20043;BME280;10182;52.896;6.496;2022-07-19T23:42:32;101184.41;;;25.32;38.13
20043;BME280;10182;52.896;6.496;2022-07-19T23:47:34;101181.31;;;25.27;37.94
20043;BME280;10182;52.896;6.496;2022-07-19T23:52:37;101183.66;;;25.22;38.17
20043;BME280;10182;52.896;6.496;2022-07-19T23:57:38;101176.84;;;25.18;38.15
